Time;durP1;ratioP1;P1;durP2;ratioP2;P2;SDS_P1;SDS_P2;PMS_P1;PMS_P2;Temp;Humidity;BMP_temperature;BMP_pressure;BME280_temperature;BME280_humidity;BME280_pressure;Samples;Min_cycle;Max_cycle;Signal;HPM_P1;HPM_P2
2024/03/21 00:03:42;;;;;;;;;;;;;;;5.73;99.78;95206.63;10293301;28;19914;-76
2024/03/21 00:08:42;;;;;;;;;;;;;;;5.66;100.00;95206.72;10295386;28;19910;-78
2024/03/21 00:13:42;;;;;;;;;;;;;;;5.55;100.00;95199.53;10309274;28;19917;-80
2024/03/21 00:18:43;;;;;;;;;;;;;;;5.55;100.00;95197.66;10292500;28;20226;-81
2024/03/21 00:23:43;;;;;;;;;;;;;;;5.52;100.00;95192.00;10309485;28;20605;-82
2024/03/21 00:28:44;;;;;;;;;;;;;;;5.50;100.00;95188.72;10288841;28;19916;-80
2024/03/21 00:33:49;;;;;;;;;;;;;;;5.44;100.00;95180.63;10308365;28;20346;-80
2024/03/21 00:38:49;;;;;;;;;;;;;;;5.46;100.00;95181.19;10299888;28;20004;-82
2024/03/21 00:43:51;;;;;;;;;;;;;;;5.45;100.00;95178.75;10291651;28;20428;-80
2024/03/21 00:48:51;;;;;;;;;;;;;;;5.44;100.00;95179.78;10308795;28;19914;-82
2024/03/21 00:53:51;;;;;;;;;;;;;;;5.41;100.00;95183.72;10307606;28;19917;-81
2024/03/21 00:58:54;;;;;;;;;;;;;;;5.33;100.00;95165.44;10330871;28;20296;-82
2024/03/21 01:03:55;;;;;;;;;;;;;;;5.31;100.00;95186.16;10296907;28;19917;-80
2024/03/21 01:08:55;;;;;;;;;;;;;;;5.23;100.00;95173.16;10307492;28;19909;-80
2024/03/21 01:13:56;;;;;;;;;;;;;;;5.20;100.00;95169.09;10303359;28;20512;-80
2024/03/21 01:18:56;;;;;;;;;;;;;;;5.15;100.00;95168.97;10290397;28;19913;-81
2024/03/21 01:23:56;;;;;;;;;;;;;;;5.05;100.00;95171.38;10304875;28;19921;-81
2024/03/21 01:28:57;;;;;;;;;;;;;;;4.96;100.00;95170.88;10304930;28;20022;-80
2024/03/21 01:33:57;;;;;;;;;;;;;;;4.79;100.00;95166.19;10308081;28;19980;-79
2024/03/21 01:38:57;;;;;;;;;;;;;;;4.67;100.00;95170.66;10302113;28;20389;-81
2024/03/21 01:44:03;;;;;;;;;;;;;;;4.47;100.00;95162.13;10305072;28;20441;-82
2024/03/21 01:49:04;;;;;;;;;;;;;;;4.37;100.00;95167.97;10313500;28;19934;-80
2024/03/21 01:54:05;;;;;;;;;;;;;;;4.30;100.00;95172.53;10295444;28;19941;-81
2024/03/21 01:59:05;;;;;;;;;;;;;;;4.25;100.00;95167.91;10314141;28;19921;-81
2024/03/21 02:04:06;;;;;;;;;;;;;;;4.13;100.00;95167.00;10297841;28;19914;-79
2024/03/21 02:09:10;;;;;;;;;;;;;;;4.05;100.00;95155.63;10314745;28;19909;-80
2024/03/21 02:14:11;;;;;;;;;;;;;;;3.98;100.00;95154.06;10315021;28;19914;-79
2024/03/21 02:19:11;;;;;;;;;;;;;;;3.91;100.00;95149.66;10297371;28;20826;-81
2024/03/21 02:24:11;;;;;;;;;;;;;;;3.69;100.00;95151.13;10327281;28;19914;-80
2024/03/21 02:29:12;;;;;;;;;;;;;;;3.68;100.00;95144.97;10311945;28;19996;-80
2024/03/21 02:34:12;;;;;;;;;;;;;;;3.54;100.00;95151.44;10315270;28;19917;-80
2024/03/21 02:39:12;;;;;;;;;;;;;;;3.35;100.00;95150.56;10314993;28;19971;-80
2024/03/21 02:44:25;;;;;;;;;;;;;;;3.36;100.00;95139.75;10312885;28;20261;-81
2024/03/21 02:49:25;;;;;;;;;;;;;;;3.34;100.00;95141.00;10313133;28;19909;-79
2024/03/21 02:54:25;;;;;;;;;;;;;;;3.41;100.00;95142.56;10311440;28;20293;-79
2024/03/21 02:59:25;;;;;;;;;;;;;;;3.41;100.00;95139.91;10313313;28;19926;-81
2024/03/21 03:04:26;;;;;;;;;;;;;;;3.52;100.00;95146.34;10312813;28;19914;-81
2024/03/21 03:09:26;;;;;;;;;;;;;;;3.50;100.00;95143.13;10294899;28;20050;-81
2024/03/21 03:14:27;;;;;;;;;;;;;;;3.39;100.00;95138.50;10312725;28;19965;-79
2024/03/21 03:19:27;;;;;;;;;;;;;;;3.34;100.00;95143.66;10311848;28;19936;-81
2024/03/21 03:24:28;;;;;;;;;;;;;;;3.28;100.00;95137.38;10307847;28;19916;-81
2024/03/21 03:29:29;;;;;;;;;;;;;;;3.23;100.00;95142.50;10309895;28;20314;-81
2024/03/21 03:39:48;;;;;;;;;;;;;;;3.23;100.00;95151.28;10274966;28;19922;-77
2024/03/21 03:44:48;;;;;;;;;;;;;;;3.08;100.00;95154.28;10287152;28;19913;-76
2024/03/21 03:49:49;;;;;;;;;;;;;;;3.14;100.00;95165.06;10300531;28;19914;-75
2024/03/21 03:54:49;;;;;;;;;;;;;;;2.99;100.00;95170.69;10261129;28;19927;-75
2024/03/21 03:59:49;;;;;;;;;;;;;;;3.01;100.00;95172.06;10296299;28;19918;-76
2024/03/21 04:04:50;;;;;;;;;;;;;;;2.89;100.00;95171.16;10297099;28;20384;-77
2024/03/21 04:09:51;;;;;;;;;;;;;;;2.80;100.00;95175.88;10299436;28;20480;-75
2024/03/21 04:14:52;;;;;;;;;;;;;;;2.72;100.00;95176.97;10287494;28;20328;-76
2024/03/21 04:19:53;;;;;;;;;;;;;;;2.58;100.00;95180.69;10298270;28;19913;-77
2024/03/21 04:24:53;;;;;;;;;;;;;;;2.45;100.00;95191.38;10310318;28;19960;-76
2024/03/21 04:29:53;;;;;;;;;;;;;;;2.35;100.00;95181.22;10303927;28;19932;-78
2024/03/21 04:34:53;;;;;;;;;;;;;;;2.48;100.00;95177.69;10297811;28;19909;-78
2024/03/21 04:39:54;;;;;;;;;;;;;;;2.46;100.00;95175.25;10296839;28;19922;-76
2024/03/21 04:44:54;;;;;;;;;;;;;;;2.51;100.00;95178.09;10300747;28;19917;-77
2024/03/21 04:49:55;;;;;;;;;;;;;;;2.74;100.00;95174.09;10301273;28;20467;-77
2024/03/21 04:54:55;;;;;;;;;;;;;;;2.75;100.00;95175.72;10278439;28;19979;-78
2024/03/21 04:59:55;;;;;;;;;;;;;;;2.92;100.00;95178.69;10295399;28;19914;-79
2024/03/21 05:04:56;;;;;;;;;;;;;;;3.02;100.00;95178.22;10298112;28;20612;-76
2024/03/21 05:09:56;;;;;;;;;;;;;;;3.10;100.00;95185.09;10296023;28;19920;-76
2024/03/21 05:14:56;;;;;;;;;;;;;;;3.19;100.00;95184.63;10290205;28;20011;-76
2024/03/21 05:19:57;;;;;;;;;;;;;;;3.30;100.00;95182.31;10299128;28;19910;-79
2024/03/21 05:24:57;;;;;;;;;;;;;;;3.57;100.00;95175.75;10304603;28;19913;-77
2024/03/21 05:29:58;;;;;;;;;;;;;;;3.93;100.00;95179.50;10272706;28;20361;-78
2024/03/21 05:34:58;;;;;;;;;;;;;;;4.50;100.00;95178.44;10303940;28;19952;-77
2024/03/21 05:39:58;;;;;;;;;;;;;;;5.44;100.00;95172.63;10279737;28;19918;-77
2024/03/21 05:44:58;;;;;;;;;;;;;;;6.05;94.88;95155.63;10305626;28;20625;-75
2024/03/21 05:49:59;;;;;;;;;;;;;;;6.78;89.32;95153.31;10303207;28;19932;-78
2024/03/21 05:55:01;;;;;;;;;;;;;;;7.80;86.30;95148.88;10307090;28;20003;-77
2024/03/21 06:00:06;;;;;;;;;;;;;;;8.82;75.31;95151.28;10306418;28;19921;-77
2024/03/21 06:05:06;;;;;;;;;;;;;;;9.04;69.00;95145.88;10280443;28;19933;-79
2024/03/21 06:10:07;;;;;;;;;;;;;;;9.13;70.56;95150.78;10290396;28;19914;-78
2024/03/21 06:15:08;;;;;;;;;;;;;;;8.69;73.48;95149.81;10301463;28;19918;-78
2024/03/21 06:20:09;;;;;;;;;;;;;;;8.27;76.37;95155.66;10303440;28;19909;-77
2024/03/21 06:25:09;;;;;;;;;;;;;;;8.22;78.73;95160.97;10306526;28;19913;-77
2024/03/21 06:30:11;;;;;;;;;;;;;;;8.28;78.96;95157.28;10304492;28;19933;-79
2024/03/21 06:35:11;;;;;;;;;;;;;;;8.39;83.40;95161.72;10287421;28;19968;-78
2024/03/21 06:40:12;;;;;;;;;;;;;;;8.61;76.46;95163.63;10277258;28;20442;-80
2024/03/21 06:45:12;;;;;;;;;;;;;;;9.68;69.16;95155.00;10310033;28;20666;-81
2024/03/21 06:50:16;;;;;;;;;;;;;;;10.56;62.65;95150.19;10301822;28;19910;-79
2024/03/21 06:55:17;;;;;;;;;;;;;;;11.80;57.91;95145.81;10302816;28;19937;-79
2024/03/21 07:00:19;;;;;;;;;;;;;;;12.93;51.68;95142.03;10302281;28;19918;-77
2024/03/21 07:05:19;;;;;;;;;;;;;;;13.76;49.30;95132.31;10300873;28;19921;-79
2024/03/21 07:10:19;;;;;;;;;;;;;;;13.53;47.25;95130.34;10271539;28;19914;-77
2024/03/21 07:15:19;;;;;;;;;;;;;;;14.86;45.53;95126.31;10304521;28;19972;-78
2024/03/21 07:20:20;;;;;;;;;;;;;;;14.53;45.01;95117.22;10299529;28;20301;-78
2024/03/21 07:25:20;;;;;;;;;;;;;;;16.34;40.84;95112.63;10296902;28;19916;-79
2024/03/21 07:30:20;;;;;;;;;;;;;;;17.41;38.69;95109.63;10309202;28;19978;-78
2024/03/21 07:35:21;;;;;;;;;;;;;;;18.24;36.81;95094.81;10306544;28;19914;-78
2024/03/21 07:40:21;;;;;;;;;;;;;;;18.79;35.64;95088.09;10307833;28;20012;-78
2024/03/21 07:45:21;;;;;;;;;;;;;;;18.36;36.03;95093.41;10306800;28;19933;-76
2024/03/21 07:50:21;;;;;;;;;;;;;;;19.73;34.06;95083.38;10302976;28;19920;-79
2024/03/21 07:55:22;;;;;;;;;;;;;;;19.50;32.84;95077.31;10302405;28;20424;-79
2024/03/21 08:00:22;;;;;;;;;;;;;;;20.19;33.17;95094.72;10305667;28;19922;-79
2024/03/21 08:05:23;;;;;;;;;;;;;;;20.51;33.11;95078.84;10305582;28;19917;-80
2024/03/21 08:10:23;;;;;;;;;;;;;;;21.33;31.20;95068.41;10303623;28;19910;-78
2024/03/21 08:15:23;;;;;;;;;;;;;;;22.02;30.59;95066.22;10303908;28;19914;-80
2024/03/21 08:20:24;;;;;;;;;;;;;;;22.40;30.78;95063.56;10306987;28;20388;-78
2024/03/21 08:25:24;;;;;;;;;;;;;;;22.16;30.36;95065.09;10302508;28;19914;-79
2024/03/21 08:30:24;;;;;;;;;;;;;;;20.77;32.34;95051.44;10303927;28;20635;-79
2024/03/21 08:35:25;;;;;;;;;;;;;;;18.87;33.49;95056.59;10304155;28;20077;-79
2024/03/21 08:40:25;;;;;;;;;;;;;;;17.56;33.86;95069.59;10312801;28;20359;-81
2024/03/21 08:45:25;;;;;;;;;;;;;;;16.90;36.34;95064.59;10289523;28;20296;-80
2024/03/21 08:50:26;;;;;;;;;;;;;;;16.68;35.79;95051.72;10306427;28;19916;-81
2024/03/21 08:55:26;;;;;;;;;;;;;;;17.38;34.41;95038.78;10307038;28;19917;-80
2024/03/21 09:00:26;;;;;;;;;;;;;;;17.27;33.22;95032.00;10308033;28;19913;-80
2024/03/21 09:05:27;;;;;;;;;;;;;;;17.03;34.75;95030.38;10307958;28;19937;-82
2024/03/21 09:10:28;;;;;;;;;;;;;;;16.46;36.20;95019.91;10304455;28;19961;-79
2024/03/21 09:15:29;;;;;;;;;;;;;;;16.79;35.83;95020.53;10303368;28;19914;-80
2024/03/21 09:20:29;;;;;;;;;;;;;;;16.90;34.90;95019.22;10299680;28;19909;-78
2024/03/21 09:25:29;;;;;;;;;;;;;;;16.60;34.17;95017.16;10304884;28;20269;-78
2024/03/21 09:30:29;;;;;;;;;;;;;;;16.57;34.65;95013.16;10287032;28;19925;-81
2024/03/21 09:35:30;;;;;;;;;;;;;;;16.94;35.15;95005.03;10305809;28;19976;-80
2024/03/21 09:40:30;;;;;;;;;;;;;;;17.68;34.39;95006.50;10305553;28;19920;-80
2024/03/21 09:45:32;;;;;;;;;;;;;;;18.72;33.12;94992.47;10302176;28;19918;-80
2024/03/21 09:50:32;;;;;;;;;;;;;;;17.66;32.72;94993.22;10285758;28;20028;-80
2024/03/21 09:55:34;;;;;;;;;;;;;;;19.69;32.80;94971.44;10286968;28;20355;-80
2024/03/21 10:00:34;;;;;;;;;;;;;;;22.24;28.23;94962.88;10287252;28;19918;-80
2024/03/21 10:05:34;;;;;;;;;;;;;;;23.54;26.33;94945.59;10303650;28;19917;-80
2024/03/21 10:10:35;;;;;;;;;;;;;;;24.57;25.58;94937.56;10309892;28;19968;-80
2024/03/21 10:15:38;;;;;;;;;;;;;;;24.27;24.84;94936.47;10306836;28;19920;-80
2024/03/21 10:20:38;;;;;;;;;;;;;;;26.68;23.75;94930.06;10312295;28;19918;-81
2024/03/21 10:25:39;;;;;;;;;;;;;;;26.15;23.61;94907.97;10310413;28;20408;-81
2024/03/21 10:30:39;;;;;;;;;;;;;;;28.65;21.42;94907.69;10312277;28;19964;-81
2024/03/21 10:35:39;;;;;;;;;;;;;;;28.09;21.60;94898.53;10294258;28;19940;-82
2024/03/21 10:40:49;;;;;;;;;;;;;;;27.27;20.53;94893.78;10310360;28;19914;-81
2024/03/21 10:45:50;;;;;;;;;;;;;;;28.74;19.53;94874.91;10310065;28;19917;-80
2024/03/21 10:50:50;;;;;;;;;;;;;;;27.87;19.92;94881.00;10293642;28;19917;-81
2024/03/21 10:55:51;;;;;;;;;;;;;;;28.97;17.51;94860.03;10300748;28;19943;-81
2024/03/21 11:00:54;;;;;;;;;;;;;;;27.33;20.14;94858.34;10291521;28;19983;-83
2024/03/21 11:11:18;;;;;;;;;;;;;;;28.60;18.66;94855.47;10306863;28;19909;-83
2024/03/21 11:16:19;;;;;;;;;;;;;;;29.05;18.79;94836.69;10310165;28;20328;-82
2024/03/21 11:21:19;;;;;;;;;;;;;;;29.95;17.40;94830.59;10309121;28;19929;-81
2024/03/21 11:26:19;;;;;;;;;;;;;;;28.72;18.26;94830.28;10307571;28;20484;-80
2024/03/21 11:31:24;;;;;;;;;;;;;;;28.32;19.21;94809.09;10305688;28;19913;-78
2024/03/21 11:36:25;;;;;;;;;;;;;;;26.24;20.97;94823.13;10305276;28;20400;-79
2024/03/21 11:41:25;;;;;;;;;;;;;;;23.52;22.08;94807.19;10306894;28;19909;-80
2024/03/21 11:46:25;;;;;;;;;;;;;;;20.95;24.08;94815.22;10287360;28;19914;-79
2024/03/21 11:51:26;;;;;;;;;;;;;;;19.24;25.90;94813.81;10307269;28;20342;-80
2024/03/21 11:56:26;;;;;;;;;;;;;;;18.77;27.35;94800.94;10309041;28;20004;-82
2024/03/21 12:01:27;;;;;;;;;;;;;;;18.27;27.88;94808.50;10291912;28;19925;-80
2024/03/21 12:06:27;;;;;;;;;;;;;;;17.78;28.86;94799.66;10306154;28;19917;-80
2024/03/21 12:11:27;;;;;;;;;;;;;;;17.58;28.70;94790.97;10308537;28;20013;-81
2024/03/21 12:16:27;;;;;;;;;;;;;;;17.58;29.06;94795.59;10307618;28;19909;-82
2024/03/21 12:21:28;;;;;;;;;;;;;;;17.44;28.88;94782.13;10305779;28;19910;-80
2024/03/21 12:26:28;;;;;;;;;;;;;;;17.47;28.48;94781.53;10306646;28;19989;-80
2024/03/21 12:31:28;;;;;;;;;;;;;;;17.13;28.32;94774.84;10287714;28;20436;-79
2024/03/21 12:36:29;;;;;;;;;;;;;;;17.23;29.42;94766.44;10307011;28;20016;-81
2024/03/21 12:41:29;;;;;;;;;;;;;;;17.42;29.07;94752.56;10304955;28;19973;-79
2024/03/21 12:46:29;;;;;;;;;;;;;;;17.40;29.34;94748.56;10288498;28;19936;-81
2024/03/21 12:51:30;;;;;;;;;;;;;;;16.70;28.99;94735.53;10321599;28;19910;-82
2024/03/21 12:56:30;;;;;;;;;;;;;;;17.33;29.48;94743.59;10305422;28;19909;-80
2024/03/21 13:01:30;;;;;;;;;;;;;;;17.36;29.79;94731.31;10298572;28;20292;-80
2024/03/21 13:06:30;;;;;;;;;;;;;;;17.62;28.82;94723.19;10282485;28;20012;-80
2024/03/21 13:11:31;;;;;;;;;;;;;;;17.27;28.96;94716.91;10307132;28;20431;-80
2024/03/21 13:16:31;;;;;;;;;;;;;;;17.34;28.20;94709.09;10305665;28;19917;-81
2024/03/21 13:21:31;;;;;;;;;;;;;;;16.77;29.13;94704.41;10301819;28;19960;-80
2024/03/21 13:26:31;;;;;;;;;;;;;;;17.10;29.83;94699.44;10306420;28;19913;-81
2024/03/21 13:31:33;;;;;;;;;;;;;;;16.90;29.82;94700.81;10303405;28;19960;-80
2024/03/21 13:36:33;;;;;;;;;;;;;;;16.75;29.17;94688.44;10304139;28;19968;-79
2024/03/21 13:41:34;;;;;;;;;;;;;;;16.01;29.03;94692.50;10304004;28;19921;-80
2024/03/21 13:46:34;;;;;;;;;;;;;;;15.89;29.16;94683.03;10309935;28;20334;-81
2024/03/21 13:51:35;;;;;;;;;;;;;;;15.57;28.69;94673.16;10292442;28;19917;-79
2024/03/21 13:56:35;;;;;;;;;;;;;;;15.70;30.27;94679.66;10312839;28;19914;-80
2024/03/21 14:01:36;;;;;;;;;;;;;;;15.52;29.46;94682.22;10312398;28;20041;-81
2024/03/21 14:06:37;;;;;;;;;;;;;;;15.87;29.84;94681.72;10313324;28;19940;-85
2024/03/21 14:11:37;;;;;;;;;;;;;;;16.28;29.11;94666.34;10317051;28;19913;-79
2024/03/21 14:16:38;;;;;;;;;;;;;;;16.66;28.90;94660.47;10331708;28;19916;-80
2024/03/21 14:21:38;;;;;;;;;;;;;;;16.73;28.42;94652.66;10312394;28;19909;-80
2024/03/21 14:26:38;;;;;;;;;;;;;;;16.86;28.22;94653.69;10313051;28;19914;-80
2024/03/21 14:31:38;;;;;;;;;;;;;;;16.75;27.71;94647.72;10310862;28;19916;-79
2024/03/21 14:36:41;;;;;;;;;;;;;;;16.06;27.51;94644.38;10312135;28;20309;-79
2024/03/21 14:41:41;;;;;;;;;;;;;;;16.19;28.60;94641.91;10310846;28;20388;-81
2024/03/21 14:46:41;;;;;;;;;;;;;;;15.92;27.51;94634.72;10311552;28;19937;-79
2024/03/21 14:51:41;;;;;;;;;;;;;;;15.48;27.60;94643.31;10310917;28;19916;-79
2024/03/21 14:56:42;;;;;;;;;;;;;;;15.31;29.21;94635.84;10309863;28;20016;-79
2024/03/21 15:01:42;;;;;;;;;;;;;;;15.28;28.04;94636.47;10307852;28;19925;-80
2024/03/21 15:06:42;;;;;;;;;;;;;;;15.03;28.59;94637.81;10308145;28;20324;-81
2024/03/21 15:11:42;;;;;;;;;;;;;;;14.94;29.00;94632.31;10308541;28;20012;-78
2024/03/21 15:16:43;;;;;;;;;;;;;;;14.58;30.06;94632.22;10306111;28;19910;-80
2024/03/21 15:21:43;;;;;;;;;;;;;;;14.23;29.37;94648.81;10317872;28;19999;-79
2024/03/21 15:26:43;;;;;;;;;;;;;;;14.22;30.80;94651.81;10312131;28;19918;-77
2024/03/21 15:31:43;;;;;;;;;;;;;;;14.18;29.93;94643.50;10299204;28;19909;-78
2024/03/21 15:36:44;;;;;;;;;;;;;;;14.22;30.32;94647.22;10298348;28;19917;-77
2024/03/21 15:41:45;;;;;;;;;;;;;;;14.13;29.87;94652.50;10302317;28;20005;-81
2024/03/21 15:46:46;;;;;;;;;;;;;;;13.99;28.57;94651.66;10278820;28;20325;-82
2024/03/21 15:51:46;;;;;;;;;;;;;;;13.89;28.72;94660.75;10307359;28;19920;-77
2024/03/21 15:56:46;;;;;;;;;;;;;;;13.82;28.47;94654.94;10284348;28;19961;-78
2024/03/21 16:01:47;;;;;;;;;;;;;;;13.74;29.32;94652.91;10303070;28;19964;-83
2024/03/21 16:06:47;;;;;;;;;;;;;;;13.86;28.95;94655.94;10321110;28;19917;-80
2024/03/21 16:11:48;;;;;;;;;;;;;;;13.70;30.24;94662.69;10307083;28;19909;-79
2024/03/21 16:16:48;;;;;;;;;;;;;;;13.63;30.67;94654.94;10306791;28;19914;-79
2024/03/21 16:21:48;;;;;;;;;;;;;;;13.46;31.23;94652.78;10307151;28;19952;-80
2024/03/21 16:26:49;;;;;;;;;;;;;;;13.42;31.46;94657.94;10304405;28;20306;-80
2024/03/21 16:31:49;;;;;;;;;;;;;;;13.41;31.41;94656.38;10306587;28;19917;-80
2024/03/21 16:36:49;;;;;;;;;;;;;;;13.27;31.91;94653.56;10306438;28;19940;-79
2024/03/21 16:41:49;;;;;;;;;;;;;;;13.37;32.03;94654.53;10300203;28;20008;-81
2024/03/21 16:46:50;;;;;;;;;;;;;;;13.31;32.08;94651.06;10289393;28;19914;-79
2024/03/21 16:51:50;;;;;;;;;;;;;;;13.19;32.54;94656.13;10305619;28;20305;-79
2024/03/21 16:56:50;;;;;;;;;;;;;;;13.12;31.96;94668.06;10304815;28;19920;-81
2024/03/21 17:01:51;;;;;;;;;;;;;;;13.17;32.99;94664.50;10304688;28;20347;-79
2024/03/21 17:06:51;;;;;;;;;;;;;;;13.21;32.20;94670.13;10288296;28;19925;-78
2024/03/21 17:11:51;;;;;;;;;;;;;;;13.02;32.75;94681.72;10305718;28;19910;-80
2024/03/21 17:16:51;;;;;;;;;;;;;;;13.11;33.07;94685.34;10307668;28;20341;-80
2024/03/21 17:21:52;;;;;;;;;;;;;;;13.14;32.69;94690.19;10313384;28;19956;-80
2024/03/21 17:26:52;;;;;;;;;;;;;;;13.15;33.92;94699.88;10314606;28;19913;-79
2024/03/21 17:31:53;;;;;;;;;;;;;;;13.06;32.51;94703.50;10310097;28;20300;-79
2024/03/21 17:36:53;;;;;;;;;;;;;;;13.03;33.85;94710.28;10311378;28;20652;-76
2024/03/21 17:41:53;;;;;;;;;;;;;;;13.09;33.32;94711.81;10305211;28;19914;-78
2024/03/21 17:46:53;;;;;;;;;;;;;;;13.09;32.73;94703.75;10313312;28;19928;-78
2024/03/21 17:51:54;;;;;;;;;;;;;;;13.02;33.33;94716.78;10319916;28;19916;-75
2024/03/21 17:56:54;;;;;;;;;;;;;;;12.85;32.85;94717.25;10287318;28;20324;-73
2024/03/21 18:01:55;;;;;;;;;;;;;;;12.65;33.03;94727.16;10302551;28;20316;-74
2024/03/21 18:06:56;;;;;;;;;;;;;;;12.64;33.67;94728.25;10302395;28;19925;-73
2024/03/21 18:11:59;;;;;;;;;;;;;;;12.52;33.29;94727.84;10290448;28;20765;-74
2024/03/21 18:16:59;;;;;;;;;;;;;;;12.50;33.58;94730.00;10302035;28;19984;-76
2024/03/21 18:22:00;;;;;;;;;;;;;;;12.37;33.45;94734.19;10302370;28;19924;-76
2024/03/21 18:27:00;;;;;;;;;;;;;;;12.45;33.76;94738.97;10301642;28;19917;-74
2024/03/21 18:32:01;;;;;;;;;;;;;;;12.04;33.36;94739.34;10280623;28;19992;-74
2024/03/21 18:37:01;;;;;;;;;;;;;;;11.82;33.91;94741.63;10299489;28;19921;-74
2024/03/21 18:42:01;;;;;;;;;;;;;;;11.90;34.24;94744.53;10295708;28;19921;-74
2024/03/21 18:47:02;;;;;;;;;;;;;;;11.43;34.53;94749.41;10300701;28;20377;-75
2024/03/21 18:52:02;;;;;;;;;;;;;;;11.32;33.91;94744.38;10298848;28;19917;-78
2024/03/21 18:57:03;;;;;;;;;;;;;;;11.10;33.95;94751.72;10288320;28;20008;-82
2024/03/21 19:02:03;;;;;;;;;;;;;;;11.11;34.61;94753.34;10307934;28;19920;-80
2024/03/21 19:07:03;;;;;;;;;;;;;;;10.85;34.34;94749.13;10306818;28;19914;-81
2024/03/21 19:12:04;;;;;;;;;;;;;;;10.73;34.76;94758.31;10284763;28;20357;-81
2024/03/21 19:17:05;;;;;;;;;;;;;;;10.84;34.64;94760.97;10279525;28;19910;-81
2024/03/21 19:22:08;;;;;;;;;;;;;;;10.98;35.38;94763.88;10302890;28;20698;-78
2024/03/21 19:27:09;;;;;;;;;;;;;;;11.02;35.14;94768.41;10296350;28;19929;-84
2024/03/21 19:32:10;;;;;;;;;;;;;;;10.93;34.71;94778.94;10292040;28;20353;-74
2024/03/21 19:37:10;;;;;;;;;;;;;;;10.90;35.00;94771.44;10307083;28;20361;-82
2024/03/21 19:42:11;;;;;;;;;;;;;;;10.95;35.11;94778.66;10313264;28;19920;-86
2024/03/21 19:47:11;;;;;;;;;;;;;;;10.97;35.30;94778.41;10283360;28;20387;-78
2024/03/21 19:52:11;;;;;;;;;;;;;;;10.97;35.23;94781.91;10314773;28;19913;-87
2024/03/21 19:57:11;;;;;;;;;;;;;;;10.92;35.45;94785.41;10294078;28;19996;-86
2024/03/21 20:02:12;;;;;;;;;;;;;;;10.82;36.02;94784.66;10312996;28;19918;-86
2024/03/21 20:07:12;;;;;;;;;;;;;;;10.71;36.53;94783.84;10307200;28;19988;-84
2024/03/21 20:12:12;;;;;;;;;;;;;;;10.36;36.85;94782.84;10292914;28;19913;-85
2024/03/21 20:17:13;;;;;;;;;;;;;;;10.13;37.28;94774.25;10306138;28;19944;-83
2024/03/21 20:22:13;;;;;;;;;;;;;;;10.01;37.09;94779.84;10306179;28;20371;-82
2024/03/21 20:27:13;;;;;;;;;;;;;;;9.90;37.17;94786.31;10307786;28;19917;-82
2024/03/21 20:32:14;;;;;;;;;;;;;;;9.86;37.64;94785.22;10276529;28;19909;-84
2024/03/21 20:37:14;;;;;;;;;;;;;;;9.78;38.06;94788.44;10316870;28;19917;-83
2024/03/21 20:42:14;;;;;;;;;;;;;;;9.62;39.91;94785.72;10307436;28;20009;-84
2024/03/21 20:47:14;;;;;;;;;;;;;;;9.77;38.73;94792.19;10289770;28;19914;-84
2024/03/21 20:52:15;;;;;;;;;;;;;;;9.77;38.68;94784.13;10306096;28;19913;-83
2024/03/21 20:57:15;;;;;;;;;;;;;;;9.66;40.75;94791.38;10302697;28;20373;-80
2024/03/21 21:02:15;;;;;;;;;;;;;;;9.40;40.50;94788.63;10287118;28;19929;-82
2024/03/21 21:07:15;;;;;;;;;;;;;;;9.62;40.20;94804.50;10307872;28;20373;-81
2024/03/21 21:12:16;;;;;;;;;;;;;;;9.42;39.77;94802.59;10306030;28;19913;-84
2024/03/21 21:17:16;;;;;;;;;;;;;;;9.31;39.57;94799.06;10282755;28;20373;-82
2024/03/21 21:22:16;;;;;;;;;;;;;;;9.50;39.93;94796.72;10303403;28;19959;-79
2024/03/21 21:27:16;;;;;;;;;;;;;;;9.37;40.56;94803.38;10318296;28;19914;-82
2024/03/21 21:32:17;;;;;;;;;;;;;;;9.31;41.03;94811.69;10278275;28;19916;-80
2024/03/21 21:37:17;;;;;;;;;;;;;;;9.17;41.65;94795.28;10301674;28;20537;-80
2024/03/21 21:42:17;;;;;;;;;;;;;;;9.12;40.60;94795.25;10305043;28;19914;-81
2024/03/21 21:47:18;;;;;;;;;;;;;;;9.10;42.84;94797.38;10302505;28;20435;-82
2024/03/21 21:52:18;;;;;;;;;;;;;;;9.12;43.81;94803.28;10288089;28;19918;-84
2024/03/21 21:57:19;;;;;;;;;;;;;;;9.14;41.89;94798.44;10303113;28;20007;-84
2024/03/21 22:02:19;;;;;;;;;;;;;;;8.99;42.02;94794.66;10289652;28;20408;-82
2024/03/21 22:07:19;;;;;;;;;;;;;;;9.02;44.63;94790.63;10309981;28;20364;-82
2024/03/21 22:12:19;;;;;;;;;;;;;;;9.11;44.35;94797.13;10294296;28;19921;-82
2024/03/21 22:17:20;;;;;;;;;;;;;;;8.79;43.29;94792.69;10313129;28;20292;-82
2024/03/21 22:22:20;;;;;;;;;;;;;;;8.60;43.57;94797.66;10295863;28;19914;-81
2024/03/21 22:27:20;;;;;;;;;;;;;;;8.49;44.34;94796.00;10306904;28;20319;-81
2024/03/21 22:32:20;;;;;;;;;;;;;;;8.21;44.63;94790.66;10332855;28;19920;-81
2024/03/21 22:37:21;;;;;;;;;;;;;;;8.16;45.13;94792.50;10290387;28;20459;-81
2024/03/21 22:42:21;;;;;;;;;;;;;;;8.26;46.42;94800.63;10292733;28;19960;-81
2024/03/21 22:47:21;;;;;;;;;;;;;;;8.32;46.43;94809.50;10335412;28;19918;-83
2024/03/21 22:52:22;;;;;;;;;;;;;;;8.18;44.72;94812.59;10312533;28;20420;-84
2024/03/21 22:57:22;;;;;;;;;;;;;;;8.29;42.91;94812.69;10311321;28;19921;-83
2024/03/21 23:02:22;;;;;;;;;;;;;;;8.21;44.98;94816.66;10294238;28;19913;-83
2024/03/21 23:07:22;;;;;;;;;;;;;;;8.24;47.32;94821.47;10302557;28;19918;-85
2024/03/21 23:12:23;;;;;;;;;;;;;;;8.19;44.73;94816.09;10294313;28;19913;-83
2024/03/21 23:17:23;;;;;;;;;;;;;;;8.03;47.90;94820.50;10292682;28;20012;-82
2024/03/21 23:22:23;;;;;;;;;;;;;;;7.82;47.95;94820.31;10292222;28;19925;-82
2024/03/21 23:27:23;;;;;;;;;;;;;;;7.51;49.35;94824.56;10308844;28;19918;-82
2024/03/21 23:32:24;;;;;;;;;;;;;;;7.51;49.36;94824.56;10293607;28;19910;-83
2024/03/21 23:37:24;;;;;;;;;;;;;;;7.50;50.25;94825.63;10308040;28;19929;-81
2024/03/21 23:42:24;;;;;;;;;;;;;;;7.41;51.12;94827.13;10310422;28;19948;-82
2024/03/21 23:47:24;;;;;;;;;;;;;;;7.41;51.17;94822.59;10308346;28;19917;-84
2024/03/21 23:52:27;;;;;;;;;;;;;;;7.37;54.67;94818.81;10308661;28;19917;-83
2024/03/21 23:57:27;;;;;;;;;;;;;;;7.40;55.81;94820.19;10298514;28;19920;-80
